Terminal Aerodrome Forecast
Issued by NWS

Home | Current Version | Previous Version | Text Only | Print | Product List | Glossary On
Versions: 1 2 3 4 5 6 7 8 9 10 11 12 13 14 15 16
000
FTUS43 KGRB 201507 AAB
TAFCWA
TAF AMD
KCWA 201507Z 2015/2112 09005KT 1 1/2SM -DZ BR OVC004
      TEMPO 2015/2018 5SM -DZ BR OVC006
     FM201800 28012G22KT P6SM OVC012
     FM202300 30012G21KT P6SM SCT020 OVC035=

USA.gov is the U.S. government's official web portal to all federal, state and local government web resources and services.